Bronson, Michigan
Current Conditions -  °F | °C
As of 3:34 AM on Friday 21 Nov 2014 (Local Time) from KOEB Reporting Station
Overcast Overcast  
Wind Chill: -10°   Ceiling: 4800
Heat Index: -7°   Visibility: 10mi
Dew Point: -9°   Wind: 5mph
Humidity: 85%   Direction: 290°WNW
Pressure: 30.29"   Gusts: NA
Location:  41.87°N, 85.19°W
Report Text: KOEB 210834Z AUTO 29004KT 10SM OVC048 M07/M09 A3029 RMK AO2 T10681090
Loading
Personal Weather Stations






























Interactive Weather Map New forecast layout! Learn more

10-Day Weather Forecast

Advertisements
Track Severe Weather on mobile